createdAt,value
2023-04-15T00:01:01.300Z,1.98
2023-04-15T00:03:28.564Z,1.77
2023-04-15T00:05:55.378Z,1.65
2023-04-15T00:08:21.983Z,2.00
2023-04-15T00:10:49.410Z,1.50
2023-04-15T00:13:16.594Z,1.45
2023-04-15T00:15:43.379Z,1.52
2023-04-15T00:18:10.203Z,1.70
2023-04-15T00:20:37.144Z,1.75
2023-04-15T00:23:04.204Z,1.40
2023-04-15T00:25:31.094Z,1.60
2023-04-15T00:27:57.779Z,1.55
2023-04-15T00:30:24.309Z,1.80
2023-04-15T00:32:54.031Z,1.88
2023-04-15T00:35:20.806Z,1.77
2023-04-15T00:37:47.452Z,1.77
2023-04-15T00:40:17.813Z,1.75
2023-04-15T00:42:45.470Z,1.50
2023-04-15T00:45:13.015Z,1.70
2023-04-15T00:47:42.244Z,1.90
2023-04-15T00:50:09.606Z,1.50
2023-04-15T00:52:36.432Z,1.38
2023-04-15T00:55:04.748Z,1.67
2023-04-15T00:57:31.716Z,1.63
2023-04-15T00:59:58.281Z,2.00
2023-04-15T01:02:25.047Z,1.40
2023-04-15T01:04:52.042Z,1.80
2023-04-15T01:07:18.858Z,1.60
2023-04-15T01:09:45.733Z,1.38
2023-04-15T01:12:14.225Z,1.80
2023-04-15T01:14:41.192Z,1.70
2023-04-15T01:17:07.689Z,1.52
2023-04-15T01:19:34.319Z,1.60
2023-04-15T01:22:02.898Z,1.50
2023-04-15T01:24:31.816Z,2.08
2023-04-15T01:26:58.556Z,1.88
2023-04-15T01:29:25.202Z,1.70
2023-04-15T01:31:53.191Z,1.88
2023-04-15T01:34:19.800Z,1.50
2023-04-15T01:36:46.834Z,1.80
2023-04-15T01:39:13.409Z,1.85
2023-04-15T01:41:40.846Z,1.80
2023-04-15T01:44:08.036Z,1.73
2023-04-15T01:46:36.309Z,1.50
2023-04-15T01:49:03.015Z,1.50
2023-04-15T01:51:29.562Z,1.63
2023-04-15T01:53:58.878Z,1.52
2023-04-15T01:56:25.524Z,1.73
2023-04-15T01:58:52.332Z,1.38
2023-04-15T02:01:22.283Z,1.25
2023-04-15T02:03:49.046Z,1.40
2023-04-15T02:06:15.882Z,1.58
2023-04-15T02:08:42.375Z,1.60
2023-04-15T02:11:09.301Z,1.40
2023-04-15T02:13:36.273Z,1.80
2023-04-15T02:16:03.799Z,1.67
2023-04-15T02:18:30.557Z,1.38
2023-04-15T02:20:58.768Z,1.70
2023-04-15T02:23:25.812Z,1.88
2023-04-15T02:25:53.704Z,1.80
2023-04-15T02:28:21.369Z,1.65
2023-04-15T02:30:52.700Z,1.67
2023-04-15T02:33:19.670Z,2.00
2023-04-15T02:35:46.560Z,1.40
2023-04-15T02:38:14.297Z,1.60
2023-04-15T02:40:40.980Z,1.35
2023-04-15T02:43:07.559Z,1.52
2023-04-15T02:45:34.168Z,1.42
2023-04-15T02:48:06.083Z,1.70
2023-04-15T02:50:32.833Z,1.75
2023-04-15T02:53:01.284Z,1.75
2023-04-15T02:55:28.638Z,1.60
2023-04-15T02:57:55.673Z,1.17
2023-04-15T03:00:22.490Z,1.67
2023-04-15T03:02:52.442Z,1.50
2023-04-15T03:05:19.148Z,1.42
2023-04-15T03:07:45.784Z,1.40
2023-04-15T03:10:12.436Z,1.45
2023-04-15T03:12:39.498Z,1.75
2023-04-15T03:15:06.815Z,1.40
2023-04-15T03:17:33.448Z,1.40
2023-04-15T03:20:01.351Z,1.60
2023-04-15T03:22:27.859Z,1.80
2023-04-15T03:24:54.362Z,1.40
2023-04-15T03:27:21.045Z,1.17
2023-04-15T03:29:47.549Z,1.77
2023-04-15T03:32:15.235Z,1.63
2023-04-15T03:34:42.253Z,1.40
2023-04-15T03:37:08.740Z,1.65
2023-04-15T03:39:35.729Z,1.45
2023-04-15T03:42:03.422Z,1.20
2023-04-15T03:44:30.541Z,1.40
2023-04-15T03:46:57.079Z,1.70
2023-04-15T03:49:24.541Z,1.40
2023-04-15T03:51:51.255Z,1.48
2023-04-15T03:54:17.794Z,1.25
2023-04-15T03:56:44.310Z,1.65
2023-04-15T03:59:11.425Z,1.40
2023-04-15T04:01:37.956Z,1.60
2023-04-15T04:04:04.677Z,1.42
2023-04-15T04:06:31.599Z,1.38
2023-04-15T04:08:58.101Z,1.45
2023-04-15T04:11:24.695Z,1.10
2023-04-15T04:13:51.232Z,1.38
2023-04-15T04:16:17.869Z,1.52
2023-04-15T04:18:44.455Z,1.50
2023-04-15T04:21:11.630Z,1.50
2023-04-15T04:23:38.151Z,1.38
2023-04-15T04:26:04.680Z,1.48
2023-04-15T04:28:31.506Z,1.45
2023-04-15T04:30:58.039Z,1.30
2023-04-15T04:33:24.671Z,1.13
2023-04-15T04:35:51.549Z,1.35
2023-04-15T04:38:18.023Z,1.48
2023-04-15T04:40:44.571Z,1.50
2023-04-15T04:43:11.190Z,1.33
2023-04-15T04:45:37.722Z,1.60
2023-04-15T04:48:07.077Z,1.30
2023-04-15T04:50:34.214Z,1.25
2023-04-15T04:53:01.628Z,1.23
2023-04-15T04:55:28.384Z,1.20
2023-04-15T04:57:55.223Z,1.60
2023-04-15T05:00:21.762Z,1.20
2023-04-15T05:02:48.621Z,1.27
2023-04-15T05:05:15.389Z,1.13
2023-04-15T05:07:42.132Z,1.70
2023-04-15T05:10:09.190Z,1.17
2023-04-15T05:12:37.366Z,1.33
2023-04-15T05:15:04.669Z,1.10
2023-04-15T05:17:31.971Z,1.23
2023-04-15T05:19:58.619Z,1.30
2023-04-15T05:22:25.341Z,1.80
2023-04-15T05:24:51.828Z,1.10
2023-04-15T05:27:19.155Z,2.20
2023-04-15T05:29:45.852Z,1.40
2023-04-15T05:32:12.483Z,1.40
2023-04-15T05:34:38.967Z,1.30
2023-04-15T05:37:05.877Z,1.60
2023-04-15T05:39:32.768Z,1.40
2023-04-15T05:41:59.904Z,1.10
2023-04-15T05:44:26.820Z,1.48
2023-04-15T05:46:53.417Z,1.33
2023-04-15T05:49:19.905Z,1.20
2023-04-15T05:51:47.894Z,1.45
2023-04-15T05:54:14.466Z,1.25
2023-04-15T05:56:41.164Z,1.35
2023-04-15T05:59:07.690Z,1.45
2023-04-15T06:01:34.925Z,1.48
2023-04-15T06:04:01.888Z,1.52
2023-04-15T06:06:28.593Z,1.35
2023-04-15T06:08:55.928Z,1.25
2023-04-15T06:11:22.506Z,1.30
2023-04-15T06:13:49.195Z,1.45
2023-04-15T06:16:15.767Z,1.48
2023-04-15T06:18:42.395Z,1.00
2023-04-15T06:21:08.916Z,1.88
2023-04-15T06:23:41.162Z,1.60
2023-04-15T06:26:07.970Z,1.60
2023-04-15T06:28:34.615Z,1.63
2023-04-15T06:31:01.984Z,1.58
2023-04-15T06:33:28.685Z,1.60
2023-04-15T06:35:55.381Z,1.67
2023-04-15T06:38:21.978Z,1.50
2023-04-15T06:40:48.453Z,2.00
2023-04-15T06:43:15.385Z,2.92
2023-04-15T06:45:41.961Z,3.53
2023-04-15T06:48:08.528Z,3.17
2023-04-15T06:50:35.710Z,3.70
2023-04-15T06:53:03.019Z,4.40
2023-04-15T06:55:29.748Z,4.35
2023-04-15T06:57:56.301Z,3.78
2023-04-15T07:00:22.949Z,3.70
2023-04-15T07:02:49.505Z,4.28
2023-04-15T07:05:16.513Z,4.97
2023-04-15T07:07:43.166Z,5.38
2023-04-15T07:10:10.121Z,5.40
2023-04-15T07:12:36.667Z,4.47
2023-04-15T07:15:03.712Z,4.88
2023-04-15T07:17:30.274Z,4.20
2023-04-15T07:19:56.935Z,3.67
2023-04-15T07:22:23.582Z,4.55
2023-04-15T07:24:50.260Z,4.32
2023-04-15T07:27:17.956Z,4.53
2023-04-15T07:29:44.478Z,4.47
2023-04-15T07:32:11.330Z,5.32
2023-04-15T07:34:38.129Z,5.25
2023-04-15T07:37:04.664Z,4.95
2023-04-15T07:39:31.224Z,4.75
2023-04-15T07:41:59.055Z,4.60
2023-04-15T07:44:27.131Z,4.80
2023-04-15T07:46:53.981Z,4.55
2023-04-15T07:49:21.520Z,4.78
2023-04-15T07:51:48.899Z,4.68
2023-04-15T07:54:15.783Z,4.63
2023-04-15T07:56:42.878Z,3.88
2023-04-15T07:59:10.035Z,4.78
2023-04-15T08:01:36.873Z,4.78
2023-04-15T08:04:03.806Z,4.45
2023-04-15T08:06:30.987Z,5.47
2023-04-15T08:08:57.726Z,6.15
2023-04-15T08:11:24.880Z,5.32
2023-04-15T08:13:52.503Z,4.85
2023-04-15T08:16:23.424Z,6.68
2023-04-15T08:18:52.075Z,6.70
2023-04-15T08:21:20.162Z,5.97
2023-04-15T08:23:49.419Z,6.25
2023-04-15T08:26:16.857Z,7.15
2023-04-15T08:28:45.448Z,7.50
2023-04-15T08:31:14.060Z,6.78
2023-04-15T08:33:40.705Z,7.40
2023-04-15T08:36:07.701Z,7.53
2023-04-15T08:38:34.676Z,8.05
2023-04-15T08:41:07.320Z,8.75
2023-04-15T08:43:35.829Z,8.63
2023-04-15T08:46:04.320Z,10.50
2023-04-15T08:48:35.710Z,10.25
2023-04-15T08:51:03.066Z,11.45
2023-04-15T08:53:30.528Z,11.95
2023-04-15T08:56:02.414Z,11.65
2023-04-15T08:58:29.606Z,11.60
2023-04-15T09:00:57.281Z,11.88
2023-04-15T09:03:24.844Z,12.32
2023-04-15T09:05:53.303Z,10.93
2023-04-15T09:08:19.926Z,10.60
2023-04-15T09:10:46.742Z,11.27
2023-04-15T09:13:13.978Z,10.77
2023-04-15T09:15:40.501Z,10.27
2023-04-15T09:18:07.170Z,10.23
2023-04-15T09:20:40.933Z,10.68
2023-04-15T09:25:44.739Z,10.27
2023-04-15T09:28:11.476Z,10.90
2023-04-15T09:30:38.087Z,10.45
2023-04-15T09:33:08.969Z,11.18
2023-04-15T09:35:36.674Z,10.60
2023-04-15T09:38:05.458Z,11.38
2023-04-15T09:40:42.024Z,11.73
2023-04-15T09:43:10.723Z,11.43
2023-04-15T09:45:37.521Z,11.63
2023-04-15T09:48:26.839Z,11.38
2023-04-15T09:50:57.580Z,11.55
2023-04-15T09:53:25.290Z,11.63
2023-04-15T09:55:57.339Z,11.95
2023-04-15T09:58:26.498Z,12.25
2023-04-15T10:00:54.681Z,11.70
2023-04-15T10:03:29.391Z,12.00
2023-04-15T10:05:57.219Z,11.68
2023-04-15T10:08:30.706Z,10.73
2023-04-15T10:10:57.916Z,11.13
2023-04-15T10:13:26.869Z,11.05
2023-04-15T10:15:59.435Z,11.23
2023-04-15T10:18:27.732Z,10.52
2023-04-15T10:20:55.150Z,11.40
2023-04-15T10:23:23.343Z,10.90
2023-04-15T10:25:52.443Z,11.02
2023-04-15T10:28:20.256Z,11.02
2023-04-15T10:30:47.954Z,10.10
2023-04-15T10:33:16.224Z,10.23
2023-04-15T10:35:43.487Z,10.55
2023-04-15T10:38:46.761Z,10.48
2023-04-15T10:41:21.850Z,10.00
2023-04-15T10:44:05.150Z,10.02
2023-04-15T10:46:44.116Z,9.85
2023-04-15T10:49:16.295Z,10.55
2023-04-15T10:51:59.026Z,9.32
2023-04-15T10:54:25.560Z,10.27
2023-04-15T10:57:02.774Z,8.90
2023-04-15T10:59:33.184Z,8.98
2023-04-15T11:02:07.359Z,9.38
2023-04-15T11:04:53.545Z,8.82
2023-04-15T11:07:44.681Z,9.60
2023-04-15T11:10:13.953Z,9.43
2023-04-15T11:12:41.951Z,8.77
2023-04-15T11:15:27.196Z,9.07
2023-04-15T11:17:53.794Z,8.65
2023-04-15T11:20:20.666Z,8.32
2023-04-15T11:23:14.018Z,9.07
2023-04-15T11:25:41.810Z,8.38
2023-04-15T11:28:08.660Z,8.60
2023-04-15T11:30:37.434Z,7.95
2023-04-15T11:33:09.175Z,8.05
2023-04-15T11:35:36.400Z,8.57
2023-04-15T11:38:11.903Z,7.90
2023-04-15T11:40:38.849Z,8.65
2023-04-15T11:43:20.308Z,7.78
2023-04-15T11:46:01.220Z,8.35
2023-04-15T11:48:29.878Z,7.05
2023-04-15T11:51:07.208Z,7.68
2023-04-15T11:53:37.118Z,7.53
2023-04-15T11:56:03.878Z,7.93
2023-04-15T11:58:30.470Z,7.43
2023-04-15T12:01:01.261Z,7.43
2023-04-15T12:03:30.125Z,6.82
2023-04-15T12:06:06.259Z,6.68
2023-04-15T12:09:00.745Z,7.18
2023-04-15T12:11:54.477Z,6.25
2023-04-15T12:14:28.958Z,6.38
2023-04-15T12:17:04.801Z,6.30
2023-04-15T12:19:43.102Z,7.22
2023-04-15T12:22:11.486Z,6.25
2023-04-15T12:24:39.322Z,7.28
2023-04-15T12:27:07.937Z,5.72
2023-04-15T12:29:36.300Z,6.22
2023-04-15T12:32:07.853Z,5.55
2023-04-15T12:34:36.424Z,6.40
2023-04-15T12:37:05.758Z,5.85
2023-04-15T12:39:35.945Z,6.60
2023-04-15T12:42:06.242Z,5.90
2023-04-15T12:44:33.377Z,5.68
2023-04-15T12:47:00.468Z,5.78
2023-04-15T12:49:27.177Z,5.97
2023-04-15T12:51:55.917Z,5.88
2023-04-15T12:54:23.003Z,5.78
2023-04-15T12:56:50.705Z,4.88
2023-04-15T12:59:20.288Z,5.70
2023-04-15T13:01:48.393Z,5.13
2023-04-15T13:04:16.481Z,4.53
2023-04-15T13:06:43.719Z,5.35
2023-04-15T13:09:10.281Z,4.95
2023-04-15T13:11:37.085Z,5.22
2023-04-15T13:14:09.449Z,4.80
2023-04-15T13:16:36.170Z,4.85
2023-04-15T13:19:03.954Z,4.30
2023-04-15T13:21:35.276Z,4.22
2023-04-15T13:24:02.858Z,4.82
2023-04-15T13:26:29.661Z,4.88
2023-04-15T13:28:56.668Z,4.70
2023-04-15T13:31:23.242Z,4.45
2023-04-15T13:33:49.877Z,4.30
2023-04-15T13:36:16.536Z,4.55
2023-04-15T13:38:43.081Z,4.40
2023-04-15T13:41:09.699Z,4.20
2023-04-15T13:43:36.621Z,4.25
2023-04-15T13:46:03.353Z,4.10
2023-04-15T13:48:30.072Z,3.65
2023-04-15T13:50:56.698Z,4.32
2023-04-15T13:53:33.870Z,4.20
2023-04-15T13:56:07.213Z,4.32
2023-04-15T13:58:33.734Z,3.42
2023-04-15T14:01:01.192Z,4.10
2023-04-15T14:03:28.762Z,3.72
2023-04-15T14:05:56.913Z,4.07
2023-04-15T14:08:24.866Z,3.83
2023-04-15T14:10:51.364Z,3.90
2023-04-15T14:13:19.507Z,3.72
2023-04-15T14:15:46.504Z,3.53
2023-04-15T14:18:13.033Z,3.38
2023-04-15T14:20:39.613Z,3.38
2023-04-15T14:23:06.249Z,3.35
2023-04-15T14:25:34.012Z,3.53
2023-04-15T14:28:01.671Z,3.20
2023-04-15T14:30:28.293Z,3.67
2023-04-15T14:32:54.887Z,3.42
2023-04-15T14:35:21.546Z,3.03
2023-04-15T14:37:48.085Z,3.17
2023-04-15T14:40:14.633Z,2.92
2023-04-15T14:42:41.166Z,3.05
2023-04-15T14:45:08.320Z,2.90
2023-04-15T14:47:34.912Z,3.00
2023-04-15T14:50:02.370Z,2.92
2023-04-15T14:52:29.008Z,2.60
2023-04-15T14:54:55.653Z,2.95
2023-04-15T14:57:22.210Z,2.70
2023-04-15T14:59:48.722Z,2.85
2023-04-15T15:02:26.293Z,2.55
2023-04-15T15:05:03.555Z,2.72
2023-04-15T15:07:30.294Z,4.43
2023-04-15T15:09:56.874Z,5.38
2023-04-15T15:12:23.557Z,5.05
2023-04-15T15:14:50.320Z,5.85
2023-04-15T15:17:16.961Z,5.13
2023-04-15T15:19:44.303Z,5.93
2023-04-15T15:22:10.822Z,7.03
2023-04-15T15:24:37.351Z,10.77
2023-04-15T15:27:03.894Z,11.88
2023-04-15T15:29:30.494Z,10.43
2023-04-15T15:31:57.062Z,8.98
2023-04-15T15:34:23.631Z,8.10
2023-04-15T15:36:50.275Z,10.75
2023-04-15T15:39:16.821Z,8.88
2023-04-15T15:41:43.415Z,8.60
2023-04-15T15:44:09.967Z,9.80
2023-04-15T15:46:36.597Z,11.57
2023-04-15T15:49:04.176Z,12.45
2023-04-15T15:51:32.002Z,16.25
2023-04-15T15:53:58.638Z,12.00
2023-04-15T15:56:25.248Z,12.38
2023-04-15T15:58:51.824Z,13.48
2023-04-15T16:01:18.577Z,13.20
2023-04-15T16:03:45.342Z,13.52
2023-04-15T16:06:12.001Z,13.32
2023-04-15T16:08:38.508Z,15.07
2023-04-15T16:11:05.125Z,14.60
2023-04-15T16:13:31.790Z,15.93
2023-04-15T16:15:58.453Z,16.20
2023-04-15T16:18:25.137Z,16.67
2023-04-15T16:20:51.694Z,15.48
2023-04-15T16:23:20.078Z,16.92
2023-04-15T16:25:46.594Z,20.80
2023-04-15T16:28:25.778Z,27.50
2023-04-15T16:30:53.905Z,28.05
2023-04-15T16:33:20.664Z,29.35
2023-04-15T16:35:47.270Z,29.15
2023-04-15T16:38:13.991Z,29.05
2023-04-15T16:40:40.571Z,30.38
2023-04-15T16:43:08.155Z,30.10
2023-04-15T16:45:34.765Z,29.98
2023-04-15T16:48:01.411Z,30.40
2023-04-15T16:50:28.134Z,29.75
2023-04-15T16:52:54.948Z,30.67
2023-04-15T16:55:21.733Z,30.73
2023-04-15T16:58:00.869Z,29.13
2023-04-15T17:00:30.045Z,29.73
2023-04-15T17:02:56.725Z,30.80
2023-04-15T17:05:23.444Z,29.77
2023-04-15T17:07:50.022Z,29.50
2023-04-15T17:10:16.552Z,28.90
2023-04-15T17:12:43.067Z,29.63
2023-04-15T17:15:10.211Z,27.85
2023-04-15T17:17:36.812Z,29.23
2023-04-15T17:20:04.209Z,28.15
2023-04-15T17:22:30.780Z,28.27
2023-04-15T17:24:57.306Z,26.95
2023-04-15T17:27:24.819Z,27.95
2023-04-15T17:29:51.437Z,27.05
2023-04-15T17:32:18.111Z,26.05
2023-04-15T17:34:50.057Z,25.63
2023-04-15T17:37:17.936Z,24.23
2023-04-15T17:39:45.363Z,24.25
2023-04-15T17:42:12.929Z,25.45
2023-04-15T17:44:39.763Z,25.70
2023-04-15T17:47:06.841Z,25.23
2023-04-15T17:49:34.240Z,27.30
2023-04-15T17:52:01.098Z,27.73
2023-04-15T17:54:27.871Z,27.42
2023-04-15T17:56:54.503Z,27.02
2023-04-15T17:59:21.255Z,26.85
2023-04-15T18:01:47.892Z,27.85
2023-04-15T18:04:14.864Z,28.70
2023-04-15T18:06:41.625Z,27.30
2023-04-15T18:09:09.088Z,27.33
2023-04-15T18:11:35.793Z,27.38
2023-04-15T18:14:03.489Z,26.85
2023-04-15T18:16:30.423Z,26.42
2023-04-15T18:18:57.165Z,27.35
2023-04-15T18:21:23.747Z,28.88
2023-04-15T18:23:50.450Z,26.90
2023-04-15T18:26:17.038Z,28.10
2023-04-15T18:28:43.710Z,26.98
2023-04-15T18:31:10.265Z,28.13
2023-04-15T18:33:36.784Z,29.02
2023-04-15T18:36:03.350Z,28.25
2023-04-15T18:38:29.905Z,29.00
2023-04-15T18:40:56.467Z,30.20
2023-04-15T18:43:23.041Z,28.02
2023-04-15T18:45:51.757Z,29.00
2023-04-15T18:48:18.306Z,27.48
2023-04-15T18:50:44.812Z,29.42
2023-04-15T18:53:11.449Z,28.73
2023-04-15T18:55:39.614Z,28.88
2023-04-15T18:58:09.143Z,28.70
2023-04-15T19:00:38.872Z,28.75
2023-04-15T19:03:06.315Z,29.73
2023-04-15T19:05:33.397Z,29.25
2023-04-15T19:07:59.990Z,28.40
2023-04-15T19:10:28.093Z,28.38
2023-04-15T19:12:55.604Z,29.17
2023-04-15T19:15:22.491Z,28.58
2023-04-15T19:17:49.007Z,28.60
2023-04-15T19:20:15.860Z,27.05
2023-04-15T19:22:43.251Z,29.40
2023-04-15T19:25:10.085Z,29.40
2023-04-15T19:27:38.421Z,28.35
2023-04-15T19:30:06.502Z,27.83
2023-04-15T19:32:33.230Z,28.23
2023-04-15T19:34:59.808Z,28.30
2023-04-15T19:37:26.345Z,27.60
2023-04-15T19:39:54.228Z,27.73
2023-04-15T19:42:20.827Z,29.02
2023-04-15T19:44:47.473Z,28.40
2023-04-15T19:47:14.050Z,28.75
2023-04-15T19:49:40.760Z,27.70
2023-04-15T19:52:07.274Z,27.05
2023-04-15T19:54:33.819Z,29.40
2023-04-15T19:57:01.532Z,28.50
2023-04-15T19:59:28.083Z,27.75
2023-04-15T20:01:54.810Z,26.50
2023-04-15T20:04:22.596Z,26.83
2023-04-15T20:06:49.774Z,27.33
2023-04-15T20:09:16.297Z,27.48
2023-04-15T20:12:46.692Z,26.38
2023-04-15T20:14:29.738Z,26.15
2023-04-15T20:16:56.340Z,28.73
2023-04-15T20:19:22.838Z,28.58
2023-04-15T20:21:50.862Z,26.00
2023-04-15T20:24:20.357Z,24.60
2023-04-15T20:26:47.218Z,26.33
2023-04-15T20:29:14.005Z,26.83
2023-04-15T20:31:40.814Z,27.83
2023-04-15T20:34:09.408Z,26.67
2023-04-15T20:36:37.461Z,26.55
2023-04-15T20:39:04.281Z,26.38
2023-04-15T20:41:30.986Z,27.10
2023-04-15T20:43:57.506Z,28.00
2023-04-15T20:46:26.697Z,26.83
2023-04-15T20:48:54.129Z,25.35
2023-04-15T20:51:20.706Z,25.23
2023-04-15T20:53:47.195Z,24.33
2023-04-15T20:56:13.714Z,26.25
2023-04-15T20:58:40.284Z,27.17
2023-04-15T21:01:06.931Z,24.05
2023-04-15T21:03:33.799Z,25.35
2023-04-15T21:06:00.440Z,25.40
2023-04-15T21:08:29.691Z,26.65
2023-04-15T21:10:57.047Z,26.77
2023-04-15T21:13:24.294Z,27.58
2023-04-15T21:15:53.387Z,28.35
2023-04-15T21:18:22.715Z,26.80
2023-04-15T21:20:59.400Z,27.40
2023-04-15T21:23:28.813Z,28.13
2023-04-15T21:25:55.973Z,28.25
2023-04-15T21:28:22.717Z,27.73
2023-04-15T21:30:49.797Z,26.27
2023-04-15T21:33:16.663Z,28.83
2023-04-15T21:35:43.189Z,28.92
2023-04-15T21:38:09.695Z,26.17
2023-04-15T21:40:40.304Z,26.98
2023-04-15T21:43:10.048Z,28.33
2023-04-15T21:45:39.314Z,28.23
2023-04-15T21:48:08.069Z,29.27
2023-04-15T21:50:38.272Z,29.45
2023-04-15T21:53:08.136Z,27.17
2023-04-15T21:55:35.261Z,27.70
2023-04-15T21:58:01.898Z,29.75
2023-04-15T22:00:28.498Z,28.85
2023-04-15T22:02:55.245Z,32.03
2023-04-15T22:05:21.934Z,31.33
2023-04-15T22:07:48.474Z,29.50
2023-04-15T22:10:15.007Z,30.15
2023-04-15T22:12:41.996Z,29.42
2023-04-15T22:15:08.922Z,29.48
2023-04-15T22:17:35.513Z,30.42
2023-04-15T22:20:02.391Z,29.80
2023-04-15T22:22:35.464Z,29.52
2023-04-15T22:25:11.128Z,31.00
2023-04-15T22:27:37.671Z,30.60
2023-04-15T22:30:05.016Z,29.48
2023-04-15T22:32:31.591Z,29.85
2023-04-15T22:34:58.104Z,29.55
2023-04-15T22:37:24.776Z,27.98
2023-04-15T22:39:51.905Z,28.67
2023-04-15T22:42:18.479Z,28.92
2023-04-15T22:44:45.022Z,28.67
2023-04-15T22:47:11.536Z,28.63
2023-04-15T22:49:39.424Z,26.75
2023-04-15T22:52:06.051Z,28.23
2023-04-15T22:54:32.906Z,27.58
2023-04-15T22:56:59.438Z,27.30
2023-04-15T22:59:25.986Z,28.25
2023-04-15T23:01:53.365Z,26.65
2023-04-15T23:04:22.926Z,25.10
2023-04-15T23:06:52.393Z,27.15
2023-04-15T23:09:19.192Z,26.40
2023-04-15T23:11:45.714Z,26.88
2023-04-15T23:14:12.523Z,26.20
2023-04-15T23:16:39.032Z,27.25
2023-04-15T23:19:05.611Z,25.73
2023-04-15T23:21:32.354Z,26.73
2023-04-15T23:23:58.895Z,27.50
2023-04-15T23:26:25.530Z,24.52
2023-04-15T23:28:52.082Z,26.00
2023-04-15T23:31:18.851Z,26.08
2023-04-15T23:33:45.634Z,23.65
2023-04-15T23:36:12.194Z,22.77
2023-04-15T23:38:38.680Z,25.00
2023-04-15T23:41:05.591Z,24.88
2023-04-15T23:43:32.114Z,24.70
2023-04-15T23:45:58.618Z,24.83
2023-04-15T23:48:25.185Z,24.75
2023-04-15T23:50:51.692Z,24.35
2023-04-15T23:53:18.261Z,23.83
2023-04-15T23:55:44.828Z,23.73
2023-04-15T23:58:11.804Z,23.83
